AST,Max TemperatureF,Mean TemperatureF,Min TemperatureF,Max Dew PointF,MeanDew PointF,Min DewpointF,Max Humidity, Mean Humidity, Min Humidity, Max Sea Level PressureIn, Mean Sea Level PressureIn, Min Sea Level PressureIn, Max VisibilityMiles, Mean VisibilityMiles, Min VisibilityMiles, Max Wind SpeedMPH, Mean Wind SpeedMPH, Max Gust SpeedMPH,PrecipitationIn, CloudCover, Events, WindDirDegrees
2014-1-1,5,0,-4,0,-5,-9,85,75,57,30.27,30.13,29.98,15,12,2,15,10,20,0.00,5,Snow,266
2014-1-2,-4,-9,-14,-9,-17,-22,84,68,52,30.45,30.37,30.25,15,15,10,14,10,22,0.00,5,Snow,280
2014-1-3,12,2,-9,9,4,-9,92,83,70,30.22,29.82,29.66,12,3,0,29,15,39,0.12,8,Snow,6
2014-1-4,8,1,-6,-4,-9,-13,78,66,47,30.30,30.19,29.96,15,15,10,18,14,31,0.00,2,Snow,259
2014-1-5,32,18,5,18,15,10,100,79,59,30.38,30.32,30.25,15,15,14,9,6,,0.00,7,,212
2014-1-6,44,28,11,45,30,14,100,93,83,30.35,29.87,29.20,15,12,0,28,13,40,0.04,7,Fog-Rain,130
2014-1-7,46,26,6,46,19,-9,100,71,29,29.76,29.32,29.05,20,11,0,29,18,41,0.04,6,Fog-Rain-Snow,240
2014-1-8,14,10,6,1,-4,-8,57,50,35,30.20,30.01,29.78,15,15,12,22,17,38,0.00,2,Snow,247
2014-1-9,16,12,6,3,1,-6,73,61,37,30.51,30.29,30.20,15,15,15,20,11,26,0.00,1,,264
2014-1-10,26,13,0,23,7,-8,93,66,37,30.52,30.41,30.27,15,15,15,16,9,20,0.00,5,,223
2014-1-11,46,34,21,46,31,19,100,96,86,30.28,30.00,29.46,15,9,0,31,10,40,0.31,7,Fog-Rain,180
2014-1-12,47,42,37,46,41,27,100,91,64,29.47,29.24,29.16,15,11,1,33,21,48,0.04,7,Fog-Rain-Snow,223
2014-1-13,36,32,28,27,23,19,86,66,42,30.09,29.87,29.49,15,15,15,21,14,38,0.00,4,,248
2014-1-14,44,36,28,45,38,27,100,91,73,30.04,29.89,29.67,15,10,0,21,16,28,0.31,8,Fog-Rain,167
2014-1-15,46,40,33,46,38,33,100,96,81,30.09,29.82,29.43,15,10,0,21,13,30,0.31,7,Fog-Rain,213
2014-1-16,36,34,32,36,34,32,100,100,98,30.02,29.94,29.88,15,5,0,10,5,,0.31,8,Fog-Rain,65
2014-1-17,37,34,31,37,34,31,100,99,93,30.04,29.97,29.89,15,6,0,13,6,,0.00,8,Fog-Rain,181
2014-1-18,36,33,30,37,33,30,100,98,84,29.93,29.82,29.55,15,8,0,14,8,18,0.04,7,Fog-Snow,236
2014-1-19,33,28,24,32,29,25,100,97,87,29.71,29.50,29.28,15,6,0,23,10,31,0.08,8,Fog-Snow,188
2014-1-20,33,27,19,30,25,14,100,85,69,29.57,29.44,29.29,15,9,1,21,14,32,0.08,7,Snow,247
2014-1-21,14,8,3,12,-1,-6,79,64,43,30.06,29.88,29.61,15,14,6,17,10,24,0.00,6,Snow,268
2014-1-22,19,12,5,18,11,-4,93,85,54,30.06,29.68,29.25,15,4,0,28,13,44,0.39,8,Snow,360
2014-1-23,16,12,6,14,6,1,93,78,59,29.87,29.68,29.30,15,12,0,23,15,40,0.02,6,Snow,274
2014-1-24,7,-1,-9,1,-4,-15,85,76,54,30.05,29.97,29.87,15,15,15,14,8,,0.00,2,,253
2014-1-25,35,13,-9,32,13,-8,93,82,71,30.09,29.93,29.54,15,15,15,29,12,41,0.04,5,Snow,156
2014-1-26,40,22,5,39,22,-9,100,78,35,29.85,29.33,29.07,15,12,3,30,23,44,0.16,6,Rain-Snow,214
2014-1-27,41,22,4,39,19,-11,100,79,34,30.06,29.75,29.49,15,11,1,28,15,40,0.08,7,Rain-Snow,182
2014-1-28,23,16,10,19,0,-9,74,51,25,30.26,29.98,29.68,15,15,8,23,13,34,0.00,4,Snow,264
2014-1-29,15,12,8,12,6,-6,93,73,33,30.26,30.03,29.86,15,10,1,13,8,,0.08,7,Snow,174
2014-1-30,16,12,7,10,4,-2,92,68,32,30.35,30.21,29.90,15,15,15,15,9,18,0.00,3,Snow,230
2014-1-31,34,22,9,30,20,10,93,75,43,30.27,30.02,29.85,15,14,1,25,14,32,0.01,7,Snow,200